sensor_id;sensor_type;location;lat;lon;timestamp;P1;durP1;ratioP1;P2;durP2;ratioP2
37955;SDS011;23776;51.592;7.180;2023-05-07T00:01:01;34.38;;;22.48;;
37955;SDS011;23776;51.592;7.180;2023-05-07T00:03:27;34.05;;;21.10;;
37955;SDS011;23776;51.592;7.180;2023-05-07T00:05:53;35.15;;;20.08;;
37955;SDS011;23776;51.592;7.180;2023-05-07T00:08:19;33.97;;;20.30;;
37955;SDS011;23776;51.592;7.180;2023-05-07T00:10:45;34.60;;;21.75;;
37955;SDS011;23776;51.592;7.180;2023-05-07T00:13:11;36.42;;;20.58;;
37955;SDS011;23776;51.592;7.180;2023-05-07T00:15:37;37.22;;;21.67;;
37955;SDS011;23776;51.592;7.180;2023-05-07T00:18:02;34.28;;;21.65;;
37955;SDS011;23776;51.592;7.180;2023-05-07T00:20:28;32.67;;;21.63;;
37955;SDS011;23776;51.592;7.180;2023-05-07T00:22:54;34.47;;;21.73;;
37955;SDS011;23776;51.592;7.180;2023-05-07T00:25:19;32.92;;;20.90;;
37955;SDS011;23776;51.592;7.180;2023-05-07T00:27:45;31.83;;;21.80;;
37955;SDS011;23776;51.592;7.180;2023-05-07T00:30:11;35.35;;;20.42;;
37955;SDS011;23776;51.592;7.180;2023-05-07T00:32:37;34.67;;;22.58;;
37955;SDS011;23776;51.592;7.180;2023-05-07T00:35:03;30.38;;;20.73;;
37955;SDS011;23776;51.592;7.180;2023-05-07T00:37:30;35.50;;;21.23;;
37955;SDS011;23776;51.592;7.180;2023-05-07T00:39:56;30.38;;;20.80;;
37955;SDS011;23776;51.592;7.180;2023-05-07T00:42:21;32.63;;;20.50;;
37955;SDS011;23776;51.592;7.180;2023-05-07T00:44:47;32.03;;;20.13;;
37955;SDS011;23776;51.592;7.180;2023-05-07T00:47:13;28.75;;;19.73;;
37955;SDS011;23776;51.592;7.180;2023-05-07T00:49:41;29.10;;;18.83;;
37955;SDS011;23776;51.592;7.180;2023-05-07T00:52:07;31.55;;;18.67;;
37955;SDS011;23776;51.592;7.180;2023-05-07T00:54:36;29.88;;;19.23;;
37955;SDS011;23776;51.592;7.180;2023-05-07T00:57:02;30.67;;;18.70;;
37955;SDS011;23776;51.592;7.180;2023-05-07T00:59:31;28.80;;;18.30;;
37955;SDS011;23776;51.592;7.180;2023-05-07T01:01:58;31.98;;;20.25;;
37955;SDS011;23776;51.592;7.180;2023-05-07T01:04:23;29.88;;;18.92;;
37955;SDS011;23776;51.592;7.180;2023-05-07T01:06:49;27.80;;;18.75;;
37955;SDS011;23776;51.592;7.180;2023-05-07T01:09:16;28.88;;;19.33;;
37955;SDS011;23776;51.592;7.180;2023-05-07T01:11:42;28.23;;;18.75;;
37955;SDS011;23776;51.592;7.180;2023-05-07T01:14:08;27.65;;;18.27;;
37955;SDS011;23776;51.592;7.180;2023-05-07T01:16:35;31.38;;;18.85;;
37955;SDS011;23776;51.592;7.180;2023-05-07T01:19:01;32.03;;;19.40;;
37955;SDS011;23776;51.592;7.180;2023-05-07T01:21:28;27.27;;;18.23;;
37955;SDS011;23776;51.592;7.180;2023-05-07T01:23:58;32.88;;;20.35;;
37955;SDS011;23776;51.592;7.180;2023-05-07T01:26:23;28.83;;;19.25;;
37955;SDS011;23776;51.592;7.180;2023-05-07T01:28:49;30.23;;;19.70;;
37955;SDS011;23776;51.592;7.180;2023-05-07T01:31:15;32.78;;;19.67;;
37955;SDS011;23776;51.592;7.180;2023-05-07T01:33:42;31.58;;;19.73;;
37955;SDS011;23776;51.592;7.180;2023-05-07T01:36:10;32.17;;;20.33;;
37955;SDS011;23776;51.592;7.180;2023-05-07T01:38:36;30.38;;;19.90;;
37955;SDS011;23776;51.592;7.180;2023-05-07T01:41:03;33.78;;;19.55;;
37955;SDS011;23776;51.592;7.180;2023-05-07T01:43:29;36.35;;;22.08;;
37955;SDS011;23776;51.592;7.180;2023-05-07T01:45:55;29.95;;;20.25;;
37955;SDS011;23776;51.592;7.180;2023-05-07T01:48:22;31.27;;;20.00;;
37955;SDS011;23776;51.592;7.180;2023-05-07T01:50:48;34.83;;;20.38;;
37955;SDS011;23776;51.592;7.180;2023-05-07T01:53:15;36.47;;;21.50;;
37955;SDS011;23776;51.592;7.180;2023-05-07T01:55:41;29.50;;;19.13;;
37955;SDS011;23776;51.592;7.180;2023-05-07T01:58:06;34.80;;;20.92;;
37955;SDS011;23776;51.592;7.180;2023-05-07T02:00:32;30.98;;;20.95;;
37955;SDS011;23776;51.592;7.180;2023-05-07T02:02:58;30.25;;;20.55;;
37955;SDS011;23776;51.592;7.180;2023-05-07T02:05:23;30.52;;;19.98;;
37955;SDS011;23776;51.592;7.180;2023-05-07T02:07:49;34.60;;;20.90;;
37955;SDS011;23776;51.592;7.180;2023-05-07T02:10:14;32.45;;;20.45;;
37955;SDS011;23776;51.592;7.180;2023-05-07T02:12:40;29.10;;;19.58;;
37955;SDS011;23776;51.592;7.180;2023-05-07T02:15:06;29.30;;;20.08;;
37955;SDS011;23776;51.592;7.180;2023-05-07T02:17:32;29.60;;;20.23;;
37955;SDS011;23776;51.592;7.180;2023-05-07T02:19:58;30.50;;;17.90;;
37955;SDS011;23776;51.592;7.180;2023-05-07T02:22:23;33.13;;;20.48;;
37955;SDS011;23776;51.592;7.180;2023-05-07T02:24:50;31.42;;;20.25;;
37955;SDS011;23776;51.592;7.180;2023-05-07T02:27:15;29.98;;;19.83;;
37955;SDS011;23776;51.592;7.180;2023-05-07T02:29:41;32.25;;;19.48;;
37955;SDS011;23776;51.592;7.180;2023-05-07T02:32:06;31.65;;;20.30;;
37955;SDS011;23776;51.592;7.180;2023-05-07T02:34:32;29.05;;;18.63;;
37955;SDS011;23776;51.592;7.180;2023-05-07T02:36:57;28.33;;;18.95;;
37955;SDS011;23776;51.592;7.180;2023-05-07T02:39:23;29.50;;;19.15;;
37955;SDS011;23776;51.592;7.180;2023-05-07T02:41:49;31.95;;;19.80;;
37955;SDS011;23776;51.592;7.180;2023-05-07T02:44:15;31.75;;;18.45;;
37955;SDS011;23776;51.592;7.180;2023-05-07T02:46:40;27.63;;;18.38;;
37955;SDS011;23776;51.592;7.180;2023-05-07T02:49:06;30.55;;;20.27;;
37955;SDS011;23776;51.592;7.180;2023-05-07T02:51:31;30.00;;;20.45;;
37955;SDS011;23776;51.592;7.180;2023-05-07T02:53:57;32.03;;;19.17;;
37955;SDS011;23776;51.592;7.180;2023-05-07T02:56:25;25.90;;;19.10;;
37955;SDS011;23776;51.592;7.180;2023-05-07T02:58:51;32.53;;;18.95;;
37955;SDS011;23776;51.592;7.180;2023-05-07T03:01:17;30.27;;;20.08;;
37955;SDS011;23776;51.592;7.180;2023-05-07T03:03:43;31.85;;;19.23;;
37955;SDS011;23776;51.592;7.180;2023-05-07T03:06:09;27.85;;;18.63;;
37955;SDS011;23776;51.592;7.180;2023-05-07T03:08:35;29.58;;;19.27;;
37955;SDS011;23776;51.592;7.180;2023-05-07T03:11:01;31.58;;;20.02;;
37955;SDS011;23776;51.592;7.180;2023-05-07T03:13:27;30.67;;;18.80;;
37955;SDS011;23776;51.592;7.180;2023-05-07T03:15:52;29.52;;;19.65;;
37955;SDS011;23776;51.592;7.180;2023-05-07T03:18:18;30.05;;;19.50;;
37955;SDS011;23776;51.592;7.180;2023-05-07T03:20:43;31.77;;;20.13;;
37955;SDS011;23776;51.592;7.180;2023-05-07T03:23:09;33.33;;;20.10;;
37955;SDS011;23776;51.592;7.180;2023-05-07T03:25:35;26.10;;;18.02;;
37955;SDS011;23776;51.592;7.180;2023-05-07T03:28:00;27.98;;;19.95;;
37955;SDS011;23776;51.592;7.180;2023-05-07T03:30:26;29.45;;;17.83;;
37955;SDS011;23776;51.592;7.180;2023-05-07T03:32:51;32.47;;;19.42;;
37955;SDS011;23776;51.592;7.180;2023-05-07T03:35:17;27.92;;;18.77;;
37955;SDS011;23776;51.592;7.180;2023-05-07T03:37:43;27.90;;;18.52;;
37955;SDS011;23776;51.592;7.180;2023-05-07T03:40:08;24.98;;;17.77;;
37955;SDS011;23776;51.592;7.180;2023-05-07T03:42:35;29.95;;;18.63;;
37955;SDS011;23776;51.592;7.180;2023-05-07T03:45:03;25.80;;;17.85;;
37955;SDS011;23776;51.592;7.180;2023-05-07T03:47:29;30.33;;;17.77;;
37955;SDS011;23776;51.592;7.180;2023-05-07T03:49:55;27.92;;;17.90;;
37955;SDS011;23776;51.592;7.180;2023-05-07T03:52:20;26.90;;;18.20;;
37955;SDS011;23776;51.592;7.180;2023-05-07T03:54:50;30.70;;;19.58;;
37955;SDS011;23776;51.592;7.180;2023-05-07T03:57:17;26.80;;;18.27;;
37955;SDS011;23776;51.592;7.180;2023-05-07T03:59:42;27.95;;;18.55;;
37955;SDS011;23776;51.592;7.180;2023-05-07T04:02:08;28.60;;;19.33;;
37955;SDS011;23776;51.592;7.180;2023-05-07T04:04:33;24.27;;;17.63;;
37955;SDS011;23776;51.592;7.180;2023-05-07T04:06:59;27.25;;;18.27;;
37955;SDS011;23776;51.592;7.180;2023-05-07T04:09:25;26.52;;;17.15;;
37955;SDS011;23776;51.592;7.180;2023-05-07T04:11:51;25.92;;;17.38;;
37955;SDS011;23776;51.592;7.180;2023-05-07T04:14:16;29.02;;;18.88;;
37955;SDS011;23776;51.592;7.180;2023-05-07T04:16:42;28.77;;;18.10;;
37955;SDS011;23776;51.592;7.180;2023-05-07T04:19:07;26.13;;;17.95;;
37955;SDS011;23776;51.592;7.180;2023-05-07T04:21:33;28.27;;;18.88;;
37955;SDS011;23776;51.592;7.180;2023-05-07T04:23:58;25.52;;;17.55;;
37955;SDS011;23776;51.592;7.180;2023-05-07T04:26:24;27.02;;;17.23;;
37955;SDS011;23776;51.592;7.180;2023-05-07T04:28:50;27.33;;;17.23;;
37955;SDS011;23776;51.592;7.180;2023-05-07T04:31:15;26.17;;;16.70;;
37955;SDS011;23776;51.592;7.180;2023-05-07T04:33:41;28.85;;;19.05;;
37955;SDS011;23776;51.592;7.180;2023-05-07T04:36:07;25.13;;;16.95;;
37955;SDS011;23776;51.592;7.180;2023-05-07T04:38:32;24.45;;;17.23;;
37955;SDS011;23776;51.592;7.180;2023-05-07T04:41:02;26.33;;;16.13;;
37955;SDS011;23776;51.592;7.180;2023-05-07T04:43:28;27.23;;;16.52;;
37955;SDS011;23776;51.592;7.180;2023-05-07T04:45:54;30.13;;;19.00;;
37955;SDS011;23776;51.592;7.180;2023-05-07T04:48:20;29.70;;;18.42;;
37955;SDS011;23776;51.592;7.180;2023-05-07T04:50:51;26.50;;;16.90;;
37955;SDS011;23776;51.592;7.180;2023-05-07T04:53:17;29.20;;;17.77;;
37955;SDS011;23776;51.592;7.180;2023-05-07T04:55:43;31.65;;;17.85;;
37955;SDS011;23776;51.592;7.180;2023-05-07T04:58:10;24.63;;;14.95;;
37955;SDS011;23776;51.592;7.180;2023-05-07T05:00:36;31.83;;;17.85;;
37955;SDS011;23776;51.592;7.180;2023-05-07T05:03:03;27.83;;;17.63;;
37955;SDS011;23776;51.592;7.180;2023-05-07T05:05:30;29.35;;;17.30;;
37955;SDS011;23776;51.592;7.180;2023-05-07T05:07:55;23.73;;;15.77;;
37955;SDS011;23776;51.592;7.180;2023-05-07T05:10:21;25.30;;;15.18;;
37955;SDS011;23776;51.592;7.180;2023-05-07T05:12:47;25.77;;;15.63;;
37955;SDS011;23776;51.592;7.180;2023-05-07T05:15:12;24.95;;;16.67;;
37955;SDS011;23776;51.592;7.180;2023-05-07T05:17:38;21.35;;;14.48;;
37955;SDS011;23776;51.592;7.180;2023-05-07T05:20:04;26.02;;;15.55;;
37955;SDS011;23776;51.592;7.180;2023-05-07T05:22:31;26.30;;;15.23;;
37955;SDS011;23776;51.592;7.180;2023-05-07T05:24:57;22.60;;;14.65;;
37955;SDS011;23776;51.592;7.180;2023-05-07T05:27:22;25.63;;;15.57;;
37955;SDS011;23776;51.592;7.180;2023-05-07T05:29:48;26.65;;;16.00;;
37955;SDS011;23776;51.592;7.180;2023-05-07T05:32:13;23.30;;;12.85;;
37955;SDS011;23776;51.592;7.180;2023-05-07T05:34:39;21.48;;;13.50;;
37955;SDS011;23776;51.592;7.180;2023-05-07T05:37:05;21.33;;;13.13;;
37955;SDS011;23776;51.592;7.180;2023-05-07T05:39:31;23.38;;;14.38;;
37955;SDS011;23776;51.592;7.180;2023-05-07T05:41:57;24.33;;;14.65;;
37955;SDS011;23776;51.592;7.180;2023-05-07T05:44:22;27.38;;;15.02;;
37955;SDS011;23776;51.592;7.180;2023-05-07T05:46:48;29.13;;;14.43;;
37955;SDS011;23776;51.592;7.180;2023-05-07T05:49:14;28.45;;;16.38;;
37955;SDS011;23776;51.592;7.180;2023-05-07T05:51:40;23.10;;;15.00;;
37955;SDS011;23776;51.592;7.180;2023-05-07T05:54:06;24.90;;;15.90;;
37955;SDS011;23776;51.592;7.180;2023-05-07T05:56:31;29.05;;;16.65;;
37955;SDS011;23776;51.592;7.180;2023-05-07T05:58:57;24.75;;;13.88;;
37955;SDS011;23776;51.592;7.180;2023-05-07T06:01:23;22.15;;;14.13;;
37955;SDS011;23776;51.592;7.180;2023-05-07T06:03:48;27.02;;;14.35;;
37955;SDS011;23776;51.592;7.180;2023-05-07T06:06:14;24.75;;;13.98;;
37955;SDS011;23776;51.592;7.180;2023-05-07T06:08:40;29.95;;;16.05;;
37955;SDS011;23776;51.592;7.180;2023-05-07T06:11:06;22.50;;;12.52;;
37955;SDS011;23776;51.592;7.180;2023-05-07T06:13:31;21.83;;;13.90;;
37955;SDS011;23776;51.592;7.180;2023-05-07T06:15:57;17.90;;;12.20;;
37955;SDS011;23776;51.592;7.180;2023-05-07T06:18:23;20.05;;;13.15;;
37955;SDS011;23776;51.592;7.180;2023-05-07T06:20:48;22.67;;;12.82;;
37955;SDS011;23776;51.592;7.180;2023-05-07T06:23:14;17.83;;;11.90;;
37955;SDS011;23776;51.592;7.180;2023-05-07T06:25:40;16.77;;;11.63;;
37955;SDS011;23776;51.592;7.180;2023-05-07T06:28:05;18.23;;;11.27;;
37955;SDS011;23776;51.592;7.180;2023-05-07T06:30:31;19.33;;;11.45;;
37955;SDS011;23776;51.592;7.180;2023-05-07T06:32:56;20.58;;;12.10;;
37955;SDS011;23776;51.592;7.180;2023-05-07T06:35:22;19.40;;;10.77;;
37955;SDS011;23776;51.592;7.180;2023-05-07T06:37:47;20.33;;;11.10;;
37955;SDS011;23776;51.592;7.180;2023-05-07T06:40:13;22.42;;;11.45;;
37955;SDS011;23776;51.592;7.180;2023-05-07T06:42:38;17.35;;;11.65;;
37955;SDS011;23776;51.592;7.180;2023-05-07T06:45:04;16.85;;;9.02;;
37955;SDS011;23776;51.592;7.180;2023-05-07T06:47:30;18.55;;;11.35;;
37955;SDS011;23776;51.592;7.180;2023-05-07T06:49:56;18.33;;;11.57;;
37955;SDS011;23776;51.592;7.180;2023-05-07T06:52:21;16.88;;;9.50;;
37955;SDS011;23776;51.592;7.180;2023-05-07T06:54:47;22.38;;;12.15;;
37955;SDS011;23776;51.592;7.180;2023-05-07T06:57:12;21.38;;;11.48;;
37955;SDS011;23776;51.592;7.180;2023-05-07T06:59:38;16.17;;;9.93;;
37955;SDS011;23776;51.592;7.180;2023-05-07T07:02:03;19.00;;;11.05;;
37955;SDS011;23776;51.592;7.180;2023-05-07T07:04:29;20.90;;;11.27;;
37955;SDS011;23776;51.592;7.180;2023-05-07T07:06:55;24.55;;;12.95;;
37955;SDS011;23776;51.592;7.180;2023-05-07T07:09:21;19.60;;;12.38;;
37955;SDS011;23776;51.592;7.180;2023-05-07T07:11:47;22.65;;;12.82;;
37955;SDS011;23776;51.592;7.180;2023-05-07T07:14:13;24.42;;;12.45;;
37955;SDS011;23776;51.592;7.180;2023-05-07T07:16:39;22.42;;;11.88;;
37955;SDS011;23776;51.592;7.180;2023-05-07T07:19:04;20.17;;;12.98;;
37955;SDS011;23776;51.592;7.180;2023-05-07T07:21:30;19.95;;;12.27;;
37955;SDS011;23776;51.592;7.180;2023-05-07T07:23:56;21.73;;;11.93;;
37955;SDS011;23776;51.592;7.180;2023-05-07T07:26:22;21.52;;;13.18;;
37955;SDS011;23776;51.592;7.180;2023-05-07T07:28:48;22.42;;;11.75;;
37955;SDS011;23776;51.592;7.180;2023-05-07T07:31:13;23.77;;;14.07;;
37955;SDS011;23776;51.592;7.180;2023-05-07T07:33:39;22.25;;;13.13;;
37955;SDS011;23776;51.592;7.180;2023-05-07T07:36:05;20.63;;;13.02;;
37955;SDS011;23776;51.592;7.180;2023-05-07T07:38:31;22.27;;;12.90;;
37955;SDS011;23776;51.592;7.180;2023-05-07T07:40:57;22.92;;;12.95;;
37955;SDS011;23776;51.592;7.180;2023-05-07T07:43:22;23.70;;;13.02;;
37955;SDS011;23776;51.592;7.180;2023-05-07T07:45:48;28.55;;;13.80;;
37955;SDS011;23776;51.592;7.180;2023-05-07T07:48:13;23.30;;;13.13;;
37955;SDS011;23776;51.592;7.180;2023-05-07T07:50:39;24.50;;;13.07;;
37955;SDS011;23776;51.592;7.180;2023-05-07T07:53:05;25.40;;;14.93;;
37955;SDS011;23776;51.592;7.180;2023-05-07T07:55:30;26.33;;;14.82;;
37955;SDS011;23776;51.592;7.180;2023-05-07T07:57:57;22.90;;;13.45;;
37955;SDS011;23776;51.592;7.180;2023-05-07T08:00:22;24.30;;;13.30;;
37955;SDS011;23776;51.592;7.180;2023-05-07T08:02:48;23.50;;;13.48;;
37955;SDS011;23776;51.592;7.180;2023-05-07T08:05:13;27.10;;;14.77;;
37955;SDS011;23776;51.592;7.180;2023-05-07T08:07:40;23.08;;;14.90;;
37955;SDS011;23776;51.592;7.180;2023-05-07T08:10:06;23.67;;;14.68;;
37955;SDS011;23776;51.592;7.180;2023-05-07T08:12:31;23.17;;;12.95;;
37955;SDS011;23776;51.592;7.180;2023-05-07T08:14:57;28.65;;;14.65;;
37955;SDS011;23776;51.592;7.180;2023-05-07T08:17:23;26.40;;;14.20;;
37955;SDS011;23776;51.592;7.180;2023-05-07T08:19:48;23.85;;;14.07;;
37955;SDS011;23776;51.592;7.180;2023-05-07T08:22:14;29.85;;;17.02;;
37955;SDS011;23776;51.592;7.180;2023-05-07T08:24:40;22.02;;;14.02;;
37955;SDS011;23776;51.592;7.180;2023-05-07T08:27:06;28.88;;;14.93;;
37955;SDS011;23776;51.592;7.180;2023-05-07T08:29:31;28.85;;;15.63;;
37955;SDS011;23776;51.592;7.180;2023-05-07T08:31:57;27.25;;;15.02;;
37955;SDS011;23776;51.592;7.180;2023-05-07T08:34:22;29.05;;;14.63;;
37955;SDS011;23776;51.592;7.180;2023-05-07T08:36:48;31.63;;;15.02;;
37955;SDS011;23776;51.592;7.180;2023-05-07T08:39:17;26.63;;;15.57;;
37955;SDS011;23776;51.592;7.180;2023-05-07T08:41:45;30.13;;;15.63;;
37955;SDS011;23776;51.592;7.180;2023-05-07T08:44:13;23.48;;;13.98;;
37955;SDS011;23776;51.592;7.180;2023-05-07T08:46:39;30.15;;;15.20;;
37955;SDS011;23776;51.592;7.180;2023-05-07T08:49:06;25.63;;;15.13;;
37955;SDS011;23776;51.592;7.180;2023-05-07T08:51:33;27.85;;;14.23;;
37955;SDS011;23776;51.592;7.180;2023-05-07T08:56:52;23.98;;;14.52;;
37955;SDS011;23776;51.592;7.180;2023-05-07T08:59:18;25.30;;;15.65;;
37955;SDS011;23776;51.592;7.180;2023-05-07T09:01:44;22.88;;;13.82;;
37955;SDS011;23776;51.592;7.180;2023-05-07T09:04:09;21.17;;;13.57;;
37955;SDS011;23776;51.592;7.180;2023-05-07T09:06:35;28.48;;;15.30;;
37955;SDS011;23776;51.592;7.180;2023-05-07T09:09:02;20.63;;;14.40;;
37955;SDS011;23776;51.592;7.180;2023-05-07T09:11:30;26.23;;;16.05;;
37955;SDS011;23776;51.592;7.180;2023-05-07T09:13:56;25.85;;;14.10;;
37955;SDS011;23776;51.592;7.180;2023-05-07T09:16:24;24.10;;;15.18;;
37955;SDS011;23776;51.592;7.180;2023-05-07T09:18:51;20.52;;;12.48;;
37955;SDS011;23776;51.592;7.180;2023-05-07T09:21:18;21.23;;;13.57;;
37955;SDS011;23776;51.592;7.180;2023-05-07T09:23:45;20.77;;;13.55;;
37955;SDS011;23776;51.592;7.180;2023-05-07T09:26:10;23.60;;;13.45;;
37955;SDS011;23776;51.592;7.180;2023-05-07T09:28:39;22.20;;;13.45;;
37955;SDS011;23776;51.592;7.180;2023-05-07T09:31:08;17.88;;;11.25;;
37955;SDS011;23776;51.592;7.180;2023-05-07T09:33:34;18.63;;;10.95;;
37955;SDS011;23776;51.592;7.180;2023-05-07T09:36:07;17.20;;;12.00;;
37955;SDS011;23776;51.592;7.180;2023-05-07T09:38:34;19.77;;;12.00;;
37955;SDS011;23776;51.592;7.180;2023-05-07T09:41:02;20.10;;;12.35;;
37955;SDS011;23776;51.592;7.180;2023-05-07T09:43:31;18.67;;;11.30;;
37955;SDS011;23776;51.592;7.180;2023-05-07T09:45:58;19.42;;;11.32;;
37955;SDS011;23776;51.592;7.180;2023-05-07T09:48:26;17.58;;;12.50;;
37955;SDS011;23776;51.592;7.180;2023-05-07T09:50:55;16.52;;;10.68;;
37955;SDS011;23776;51.592;7.180;2023-05-07T09:53:23;26.45;;;12.45;;
37955;SDS011;23776;51.592;7.180;2023-05-07T09:55:50;20.48;;;11.73;;
37955;SDS011;23776;51.592;7.180;2023-05-07T09:58:16;17.88;;;11.80;;
37955;SDS011;23776;51.592;7.180;2023-05-07T10:00:43;20.85;;;11.18;;
37955;SDS011;23776;51.592;7.180;2023-05-07T10:03:10;15.98;;;10.13;;
37955;SDS011;23776;51.592;7.180;2023-05-07T10:05:37;13.35;;;8.77;;
37955;SDS011;23776;51.592;7.180;2023-05-07T10:08:04;12.85;;;9.77;;
37955;SDS011;23776;51.592;7.180;2023-05-07T10:10:30;16.20;;;9.23;;
37955;SDS011;23776;51.592;7.180;2023-05-07T10:12:58;16.25;;;10.25;;
37955;SDS011;23776;51.592;7.180;2023-05-07T10:15:24;16.13;;;9.50;;
37955;SDS011;23776;51.592;7.180;2023-05-07T10:17:50;15.93;;;9.85;;
37955;SDS011;23776;51.592;7.180;2023-05-07T10:20:18;24.45;;;11.15;;
37955;SDS011;23776;51.592;7.180;2023-05-07T10:22:45;18.52;;;9.75;;
37955;SDS011;23776;51.592;7.180;2023-05-07T10:25:34;13.02;;;8.57;;
37955;SDS011;23776;51.592;7.180;2023-05-07T10:28:00;17.50;;;10.27;;
37955;SDS011;23776;51.592;7.180;2023-05-07T10:30:36;16.27;;;10.30;;
37955;SDS011;23776;51.592;7.180;2023-05-07T10:33:23;15.93;;;9.65;;
37955;SDS011;23776;51.592;7.180;2023-05-07T10:35:52;13.68;;;8.20;;
37955;SDS011;23776;51.592;7.180;2023-05-07T10:38:23;17.75;;;10.10;;
37955;SDS011;23776;51.592;7.180;2023-05-07T10:40:50;13.70;;;8.82;;
37955;SDS011;23776;51.592;7.180;2023-05-07T10:43:16;12.45;;;7.93;;
37955;SDS011;23776;51.592;7.180;2023-05-07T10:45:42;13.45;;;9.23;;
37955;SDS011;23776;51.592;7.180;2023-05-07T10:48:15;11.50;;;7.65;;
37955;SDS011;23776;51.592;7.180;2023-05-07T10:50:42;12.93;;;8.88;;
37955;SDS011;23776;51.592;7.180;2023-05-07T10:55:47;16.73;;;8.30;;
37955;SDS011;23776;51.592;7.180;2023-05-07T11:00:46;15.63;;;8.23;;
37955;SDS011;23776;51.592;7.180;2023-05-07T11:03:12;13.23;;;6.55;;
37955;SDS011;23776;51.592;7.180;2023-05-07T11:05:39;11.80;;;8.25;;
37955;SDS011;23776;51.592;7.180;2023-05-07T11:08:06;13.95;;;7.95;;
37955;SDS011;23776;51.592;7.180;2023-05-07T11:16:24;13.20;;;7.78;;
37955;SDS011;23776;51.592;7.180;2023-05-07T11:18:53;13.60;;;7.55;;
37955;SDS011;23776;51.592;7.180;2023-05-07T11:23:57;11.85;;;7.20;;
37955;SDS011;23776;51.592;7.180;2023-05-07T11:26:24;10.52;;;7.35;;
37955;SDS011;23776;51.592;7.180;2023-05-07T11:28:50;12.65;;;7.97;;
37955;SDS011;23776;51.592;7.180;2023-05-07T11:31:20;11.50;;;6.82;;
37955;SDS011;23776;51.592;7.180;2023-05-07T11:33:48;10.45;;;7.35;;
37955;SDS011;23776;51.592;7.180;2023-05-07T11:36:14;10.73;;;6.30;;
37955;SDS011;23776;51.592;7.180;2023-05-07T11:38:40;11.32;;;6.25;;
37955;SDS011;23776;51.592;7.180;2023-05-07T11:41:06;14.00;;;6.30;;
37955;SDS011;23776;51.592;7.180;2023-05-07T11:43:32;12.98;;;8.32;;
37955;SDS011;23776;51.592;7.180;2023-05-07T11:46:10;10.85;;;7.13;;
37955;SDS011;23776;51.592;7.180;2023-05-07T11:48:37;10.88;;;6.28;;
37955;SDS011;23776;51.592;7.180;2023-05-07T11:51:04;11.95;;;7.40;;
37955;SDS011;23776;51.592;7.180;2023-05-07T11:53:38;10.85;;;7.55;;
37955;SDS011;23776;51.592;7.180;2023-05-07T11:56:15;12.75;;;8.10;;
37955;SDS011;23776;51.592;7.180;2023-05-07T11:58:42;15.50;;;7.75;;
37955;SDS011;23776;51.592;7.180;2023-05-07T12:01:09;12.43;;;7.53;;
37955;SDS011;23776;51.592;7.180;2023-05-07T12:03:36;12.68;;;7.28;;
37955;SDS011;23776;51.592;7.180;2023-05-07T12:06:07;14.80;;;8.40;;
37955;SDS011;23776;51.592;7.180;2023-05-07T12:08:36;9.95;;;6.35;;
37955;SDS011;23776;51.592;7.180;2023-05-07T12:11:02;12.38;;;6.53;;
37955;SDS011;23776;51.592;7.180;2023-05-07T12:13:31;10.88;;;6.53;;
37955;SDS011;23776;51.592;7.180;2023-05-07T12:15:57;13.38;;;6.28;;
37955;SDS011;23776;51.592;7.180;2023-05-07T12:18:23;12.60;;;7.63;;
37955;SDS011;23776;51.592;7.180;2023-05-07T12:20:50;11.10;;;7.50;;
37955;SDS011;23776;51.592;7.180;2023-05-07T12:23:15;12.05;;;7.18;;
37955;SDS011;23776;51.592;7.180;2023-05-07T12:25:42;12.52;;;8.18;;
37955;SDS011;23776;51.592;7.180;2023-05-07T12:28:15;11.27;;;7.07;;
37955;SDS011;23776;51.592;7.180;2023-05-07T12:30:48;10.55;;;6.40;;
37955;SDS011;23776;51.592;7.180;2023-05-07T12:33:18;10.82;;;6.43;;
37955;SDS011;23776;51.592;7.180;2023-05-07T12:35:49;10.95;;;7.03;;
37955;SDS011;23776;51.592;7.180;2023-05-07T12:38:16;14.10;;;7.45;;
37955;SDS011;23776;51.592;7.180;2023-05-07T12:40:45;12.48;;;8.18;;
37955;SDS011;23776;51.592;7.180;2023-05-07T12:45:56;12.82;;;7.13;;
37955;SDS011;23776;51.592;7.180;2023-05-07T12:48:25;10.07;;;6.60;;
37955;SDS011;23776;51.592;7.180;2023-05-07T12:50:55;10.30;;;6.95;;
37955;SDS011;23776;51.592;7.180;2023-05-07T12:53:22;8.52;;;6.30;;
37955;SDS011;23776;51.592;7.180;2023-05-07T12:55:50;16.00;;;8.95;;
37955;SDS011;23776;51.592;7.180;2023-05-07T12:58:27;16.20;;;8.10;;
37955;SDS011;23776;51.592;7.180;2023-05-07T13:00:58;15.40;;;8.73;;
37955;SDS011;23776;51.592;7.180;2023-05-07T13:05:51;10.63;;;7.57;;
37955;SDS011;23776;51.592;7.180;2023-05-07T13:08:24;13.95;;;8.27;;
37955;SDS011;23776;51.592;7.180;2023-05-07T13:11:01;15.60;;;7.38;;
37955;SDS011;23776;51.592;7.180;2023-05-07T13:13:29;11.77;;;6.63;;
37955;SDS011;23776;51.592;7.180;2023-05-07T13:15:59;12.52;;;7.18;;
37955;SDS011;23776;51.592;7.180;2023-05-07T13:18:25;12.05;;;6.25;;
37955;SDS011;23776;51.592;7.180;2023-05-07T13:20:51;11.30;;;7.18;;
37955;SDS011;23776;51.592;7.180;2023-05-07T13:23:18;10.95;;;7.93;;
37955;SDS011;23776;51.592;7.180;2023-05-07T13:25:43;14.20;;;8.40;;
37955;SDS011;23776;51.592;7.180;2023-05-07T13:28:09;13.90;;;8.82;;
37955;SDS011;23776;51.592;7.180;2023-05-07T13:30:35;12.25;;;8.90;;
37955;SDS011;23776;51.592;7.180;2023-05-07T13:33:00;13.63;;;8.55;;
37955;SDS011;23776;51.592;7.180;2023-05-07T13:35:27;13.07;;;8.40;;
37955;SDS011;23776;51.592;7.180;2023-05-07T13:37:52;15.48;;;8.63;;
37955;SDS011;23776;51.592;7.180;2023-05-07T13:40:19;14.18;;;8.40;;
37955;SDS011;23776;51.592;7.180;2023-05-07T13:42:45;15.55;;;9.73;;
37955;SDS011;23776;51.592;7.180;2023-05-07T13:45:11;15.63;;;8.90;;
37955;SDS011;23776;51.592;7.180;2023-05-07T13:47:39;15.48;;;8.30;;
37955;SDS011;23776;51.592;7.180;2023-05-07T13:50:08;16.38;;;7.75;;
37955;SDS011;23776;51.592;7.180;2023-05-07T13:52:34;13.75;;;8.82;;
37955;SDS011;23776;51.592;7.180;2023-05-07T13:55:00;13.88;;;8.77;;
37955;SDS011;23776;51.592;7.180;2023-05-07T13:57:26;14.95;;;8.75;;
37955;SDS011;23776;51.592;7.180;2023-05-07T13:59:51;14.10;;;7.20;;
37955;SDS011;23776;51.592;7.180;2023-05-07T14:02:17;12.70;;;8.43;;
37955;SDS011;23776;51.592;7.180;2023-05-07T14:04:42;15.25;;;10.13;;
37955;SDS011;23776;51.592;7.180;2023-05-07T14:07:08;13.05;;;8.02;;
37955;SDS011;23776;51.592;7.180;2023-05-07T14:09:33;9.90;;;7.75;;
37955;SDS011;23776;51.592;7.180;2023-05-07T14:11:59;13.05;;;8.23;;
37955;SDS011;23776;51.592;7.180;2023-05-07T14:14:25;11.13;;;7.60;;
37955;SDS011;23776;51.592;7.180;2023-05-07T14:16:50;11.18;;;7.45;;
37955;SDS011;23776;51.592;7.180;2023-05-07T14:19:16;13.38;;;8.13;;
37955;SDS011;23776;51.592;7.180;2023-05-07T14:21:41;15.52;;;8.35;;
37955;SDS011;23776;51.592;7.180;2023-05-07T14:24:07;11.77;;;7.95;;
37955;SDS011;23776;51.592;7.180;2023-05-07T14:26:33;10.55;;;7.18;;
37955;SDS011;23776;51.592;7.180;2023-05-07T14:29:00;11.27;;;7.32;;
37955;SDS011;23776;51.592;7.180;2023-05-07T14:31:25;14.20;;;7.43;;
37955;SDS011;23776;51.592;7.180;2023-05-07T14:33:51;12.27;;;7.43;;
37955;SDS011;23776;51.592;7.180;2023-05-07T14:36:17;19.08;;;11.88;;
37955;SDS011;23776;51.592;7.180;2023-05-07T14:38:45;14.00;;;8.57;;
37955;SDS011;23776;51.592;7.180;2023-05-07T14:41:11;11.40;;;7.00;;
37955;SDS011;23776;51.592;7.180;2023-05-07T14:43:36;14.40;;;7.10;;